createdAt,value
2019-01-17T13:22:45.989Z,2.60
2019-01-17T13:25:19.569Z,2.40
2019-01-17T13:27:50.194Z,2.20
2019-01-17T13:30:22.531Z,2.00
2019-01-17T13:32:52.377Z,1.90
2019-01-17T13:35:22.294Z,1.80
2019-01-17T13:37:56.492Z,1.60
2019-01-17T14:06:02.643Z,1.00
2019-01-17T14:09:08.592Z,0.90
2019-01-17T14:11:39.378Z,0.80
2019-01-17T14:14:09.398Z,0.80
2019-01-17T14:16:40.383Z,0.80
2019-01-17T14:19:10.605Z,0.70
2019-01-17T14:21:41.066Z,0.70
2019-01-17T14:24:12.095Z,0.70
2019-01-17T14:26:41.998Z,0.70
2019-01-17T14:29:11.993Z,0.70
2019-01-17T14:31:43.584Z,0.60
2019-01-17T14:34:44.987Z,0.60
2019-01-17T14:37:49.283Z,0.60
2019-01-17T14:40:43.580Z,0.60
2019-01-17T15:40:53.280Z,0.60
2019-01-17T15:43:23.448Z,0.60
2019-01-17T15:45:53.010Z,0.60
2019-01-17T15:48:22.626Z,0.60
2019-01-17T15:50:52.270Z,0.60
2019-01-17T15:53:22.034Z,0.60
2019-01-17T15:55:51.801Z,0.60
2019-01-17T15:58:21.494Z,0.60
2019-01-17T16:00:51.081Z,0.60
2019-01-17T16:03:21.078Z,0.70
2019-01-17T16:05:50.929Z,0.60
2019-01-17T16:08:20.735Z,0.60
2019-01-17T16:10:50.525Z,0.70
2019-01-17T16:13:20.363Z,0.70
2019-01-17T16:15:50.435Z,0.70
2019-01-17T16:18:22.040Z,0.70
2019-01-17T16:20:51.912Z,0.70
2019-01-17T16:23:21.774Z,0.70
2019-01-17T16:25:51.672Z,0.60
2019-01-17T16:28:21.976Z,0.60
2019-01-17T16:30:57.153Z,0.70
2019-01-17T16:33:27.524Z,0.70
2019-01-17T16:35:57.592Z,0.60
2019-01-17T16:38:27.573Z,0.60
2019-01-17T16:40:57.429Z,0.60
2019-01-17T16:43:27.285Z,0.50
2019-01-17T16:45:57.053Z,0.50
2019-01-17T16:48:27.482Z,0.50
2019-01-17T16:50:58.382Z,0.50
2019-01-17T16:53:28.406Z,0.40
2019-01-17T16:55:58.945Z,0.40
2019-01-17T16:58:29.357Z,0.50
2019-01-17T17:00:59.274Z,0.40
2019-01-17T17:03:29.196Z,0.40
2019-01-17T17:05:58.984Z,0.30
2019-01-17T17:08:28.901Z,0.30
2019-01-17T17:10:59.758Z,0.30
2019-01-17T17:13:31.813Z,0.30
2019-01-17T17:16:01.762Z,0.20
2019-01-17T17:18:34.992Z,0.20
2019-01-17T17:21:08.505Z,0.20
2019-01-17T17:23:41.688Z,0.20
2019-01-17T17:26:28.092Z,0.20
2019-01-17T17:33:12.115Z,0.10
2019-01-17T17:35:44.577Z,0.00
2019-01-17T17:38:22.721Z,0.00
2019-01-17T17:41:13.057Z,0.00
2019-01-17T17:44:14.620Z,-0.10
2019-01-17T17:50:31.044Z,0.00
2019-01-17T17:53:24.829Z,-0.10
2019-01-17T17:56:26.103Z,-0.10
2019-01-17T17:59:14.397Z,-0.10
2019-01-17T18:01:55.523Z,-0.10
2019-01-17T18:04:53.407Z,-0.20
2019-01-17T18:08:08.069Z,-0.20
2019-01-17T18:10:48.222Z,-0.20
2019-01-17T18:14:08.550Z,-0.20
2019-01-17T18:17:43.964Z,-0.20
2019-01-17T21:19:12.562Z,-0.90
2019-01-17T21:22:09.482Z,-0.90
2019-01-17T21:31:50.228Z,-1.00
2019-01-17T21:41:50.392Z,-1.00
2019-01-17T21:44:35.483Z,-1.10
2019-01-17T21:47:10.589Z,-1.00
2019-01-17T21:49:41.233Z,-1.00
2019-01-17T21:52:13.559Z,-1.00
2019-01-17T21:54:51.159Z,-1.00
2019-01-17T21:57:29.180Z,-1.00
2019-01-17T22:00:01.636Z,-1.00
2019-01-17T22:02:33.683Z,-1.00
2019-01-17T22:05:05.667Z,-1.00
2019-01-17T22:07:46.231Z,-1.00
2019-01-17T22:11:15.234Z,-1.10
2019-01-17T22:33:14.539Z,-1.10
2019-01-17T22:36:25.753Z,-1.20
2019-01-17T22:39:37.516Z,-1.20
2019-01-17T23:13:53.883Z,-2.40
2019-01-17T23:16:46.145Z,-2.60
2019-01-17T23:19:17.833Z,-2.60
2019-01-17T23:21:50.908Z,-2.60
2019-01-17T23:24:20.711Z,-2.60
2019-01-17T23:26:50.467Z,-2.70
2019-01-17T23:29:20.146Z,-2.70
2019-01-17T23:31:49.875Z,-2.70
2019-01-17T23:34:19.584Z,-2.80
2019-01-17T23:36:49.342Z,-2.80
2019-01-17T23:39:19.140Z,-2.80
2019-01-17T23:41:49.141Z,-2.80
2019-01-17T23:44:18.953Z,-2.80
2019-01-17T23:46:49.180Z,-2.90
2019-01-17T23:49:24.188Z,-2.90
2019-01-17T23:51:54.296Z,-3.00
2019-01-17T23:54:24.142Z,-3.00
2019-01-17T23:56:58.264Z,-3.10
2019-01-17T23:59:28.230Z,-3.10
